Time;durP1;ratioP1;P1;durP2;ratioP2;P2;SDS_P1;SDS_P2;PMS_P1;PMS_P2;Temp;Humidity;BMP_temperature;BMP_pressure;BME280_temperature;BME280_humidity;BME280_pressure;Samples;Min_cycle;Max_cycle;Signal;HPM_P1;HPM_P2
2023/07/10 00:00:04;;;;;;;6.47;4.80;;;23.30;96.10;;;23.42;68.16;101133.41;5033590;28;20290;-77
2023/07/10 00:02:36;;;;;;;6.80;5.00;;;23.30;95.90;;;23.39;68.26;101138.47;5033590;28;20194;-77
2023/07/10 00:05:15;;;;;;;8.03;4.87;;;23.20;96.00;;;23.43;68.15;101134.22;5033559;28;20227;-77
2023/07/10 00:07:46;;;;;;;6.10;4.73;;;23.30;96.20;;;23.39;68.13;101128.34;5033504;28;20237;-76
2023/07/10 00:10:20;;;;;;;5.60;4.77;;;23.30;95.80;;;23.30;68.12;101134.41;5033445;28;20302;-76
2023/07/10 00:12:52;;;;;;;7.97;4.33;;;23.20;95.90;;;23.27;69.08;101123.94;5033451;28;20191;-76
2023/07/10 00:15:27;;;;;;;5.70;4.90;;;23.10;96.30;;;23.22;68.38;101121.91;5033371;28;20316;-76
2023/07/10 00:17:59;;;;;;;7.70;4.73;;;23.10;96.30;;;23.17;68.60;101113.59;5033149;28;20226;-76
2023/07/10 00:20:31;;;;;;;7.93;4.90;;;23.00;96.50;;;23.20;69.05;101107.66;5033373;28;20198;-76
2023/07/10 00:23:03;;;;;;;7.13;5.00;;;23.10;96.60;;;23.18;68.75;101109.81;5033335;28;20195;-76
2023/07/10 00:25:37;;;;;;;8.03;4.80;;;23.10;96.50;;;23.20;68.60;101100.28;5032980;28;20313;-76
2023/07/10 00:28:17;;;;;;;5.87;4.63;;;23.10;96.30;;;23.16;68.95;101106.44;5033369;28;20226;-76
2023/07/10 00:30:50;;;;;;;6.83;4.50;;;23.10;96.40;;;23.13;68.99;101099.56;5033237;28;20246;-76
2023/07/10 00:33:26;;;;;;;7.37;5.00;;;23.00;96.70;;;23.00;70.17;101104.41;5032994;28;20209;-76
2023/07/10 00:35:58;;;;;;;6.83;5.13;;;22.80;97.30;;;22.95;69.98;101105.09;5032875;28;20296;-76
2023/07/10 00:38:34;;;;;;;6.30;5.17;;;22.80;97.30;;;22.94;69.39;101097.16;5033230;28;20282;-76
2023/07/10 00:41:14;;;;;;;5.77;4.90;;;22.80;97.10;;;22.89;70.11;101107.91;5033229;28;20214;-76
2023/07/10 00:43:52;;;;;;;8.93;5.37;;;22.80;97.20;;;22.87;70.26;101090.94;5033209;28;20195;-76
2023/07/10 00:46:40;;;;;;;5.57;4.60;;;22.70;97.40;;;22.82;70.40;101104.44;5032798;28;20730;-76
2023/07/10 00:49:24;;;;;;;6.57;5.27;;;22.70;97.50;;;22.79;70.53;101104.91;5032769;28;20768;-76
2023/07/10 00:52:06;;;;;;;6.50;4.80;;;22.60;97.80;;;22.82;70.77;101104.44;5033169;28;20270;-76
2023/07/10 00:54:43;;;;;;;7.63;5.13;;;22.70;97.70;;;22.76;70.94;101116.28;5033084;28;20281;-76
2023/07/10 00:57:21;;;;;;;8.03;5.20;;;22.60;97.70;;;22.69;71.47;101121.84;5033132;28;20286;-76
2023/07/10 00:59:55;;;;;;;6.63;4.97;;;22.60;98.10;;;22.63;70.89;101111.81;5033085;28;20206;-77
2023/07/10 01:02:28;;;;;;;6.93;5.53;;;22.60;97.80;;;22.65;71.15;101105.06;5033054;28;20281;-76
2023/07/10 01:05:04;;;;;;;7.73;5.20;;;22.60;98.10;;;22.57;71.93;101097.19;5032972;28;20223;-76
2023/07/10 01:07:42;;;;;;;7.50;4.80;;;22.40;98.10;;;22.55;71.62;101104.78;5032699;28;20657;-76
2023/07/10 01:10:16;;;;;;;5.83;4.90;;;22.50;98.20;;;22.56;71.82;101103.72;5032581;28;20694;-76
2023/07/10 01:12:50;;;;;;;6.43;5.37;;;22.40;98.60;;;22.42;72.09;101102.22;5032973;28;20226;-76
2023/07/10 01:15:22;;;;;;;5.70;4.83;;;22.30;98.70;;;22.32;72.33;101109.28;5032802;28;20322;-76
2023/07/10 01:17:54;;;;;;;5.93;4.97;;;22.20;98.60;;;22.32;71.80;101112.84;5032899;28;20223;-76
2023/07/10 01:20:40;;;;;;;6.97;5.47;;;22.30;98.80;;;22.35;71.86;101097.91;5032915;28;20237;-76
2023/07/10 01:23:14;;;;;;;7.27;5.73;;;22.30;98.50;;;22.31;71.97;101089.34;5033459;28;20258;-76
2023/07/10 01:25:54;;;;;;;7.53;4.80;;;22.30;98.50;;;22.30;71.59;101095.84;5036376;28;20262;-76
2023/07/10 01:28:27;;;;;;;6.20;4.80;;;22.30;98.70;;;22.24;72.82;101088.59;5036314;28;20277;-76
2023/07/10 01:31:04;;;;;;;7.73;5.13;;;22.20;98.70;;;22.31;71.93;101089.34;5036222;28;20241;-76
2023/07/10 01:33:43;;;;;;;5.67;5.03;;;22.30;98.70;;;22.33;71.81;101079.03;5036307;28;20202;-76
2023/07/10 01:36:20;;;;;;;7.40;5.17;;;22.30;98.70;;;22.35;71.91;101085.09;5035791;28;20238;-76
2023/07/10 01:39:02;;;;;;;7.37;4.73;;;22.30;98.60;;;22.36;71.88;101094.97;5036147;28;20281;-76
2023/07/10 01:41:39;;;;;;;5.83;4.80;;;22.40;98.50;;;22.30;73.01;101095.03;5036077;28;20219;-76
2023/07/10 01:44:25;;;;;;;5.70;4.70;;;22.20;99.20;;;22.34;71.93;101108.00;5036086;28;20190;-76
2023/07/10 01:47:00;;;;;;;7.17;5.27;;;22.30;98.80;;;22.37;71.62;101120.31;5035669;28;20191;-76
2023/07/10 01:49:38;;;;;;;7.37;4.80;;;22.40;98.50;;;22.26;71.87;101124.66;5035864;28;20207;-76
2023/07/10 01:52:14;;;;;;;7.80;4.50;;;22.20;98.70;;;22.32;72.34;101123.75;5035624;28;20231;-76
2023/07/10 01:54:47;;;;;;;9.10;5.53;;;22.30;99.00;;;22.33;72.98;101136.31;5035769;28;20229;-76
2023/07/10 01:57:23;;;;;;;8.37;5.97;;;22.30;99.20;;;22.09;75.16;101146.22;5035833;28;20187;-76
2023/07/10 01:59:55;;;;;;;8.87;5.00;;;22.10;99.90;;;22.04;74.75;101137.06;5035780;28;20263;-76
2023/07/10 02:02:27;;;;;;;9.67;5.67;;;22.00;99.90;;;21.83;75.75;101132.84;5036257;28;20198;-76
2023/07/10 02:04:59;;;;;;;7.37;5.33;;;21.80;99.90;;;21.93;74.60;101116.84;5035276;28;20859;-76
2023/07/10 02:07:31;;;;;;;6.33;5.03;;;21.90;99.90;;;21.95;74.60;101098.34;5035669;28;20187;-76
2023/07/10 02:10:04;;;;;;;7.23;4.90;;;21.90;99.90;;;22.04;74.08;101102.47;5035548;28;20245;-76
2023/07/10 02:12:36;;;;;;;8.17;5.40;;;22.00;99.90;;;21.92;75.98;101145.16;5035551;28;20218;-76
2023/07/10 02:15:10;;;;;;;11.13;5.73;;;22.00;99.90;;;21.90;76.16;101150.00;5035496;28;20231;-76
2023/07/10 02:17:42;;;;;;;8.67;5.57;;;21.90;99.90;;;21.84;76.36;101152.78;5035503;28;20202;-76
2023/07/10 02:20:15;;;;;;;7.83;5.77;;;21.80;99.90;;;21.78;76.19;101140.03;5035476;28;20191;-76
2023/07/10 02:22:47;;;;;;;8.10;5.57;;;21.80;99.90;;;21.85;75.53;101138.09;5035128;28;20294;-76
2023/07/10 02:25:21;;;;;;;8.57;5.30;;;21.90;99.90;;;21.85;74.97;101144.34;5035318;28;20322;-76
2023/07/10 02:27:53;;;;;;;9.10;6.07;;;21.90;99.90;;;21.85;75.10;101147.06;5035334;28;20624;-76
2023/07/10 02:30:25;;;;;;;7.20;5.73;;;21.80;99.90;;;21.80;75.63;101138.75;5035217;28;20261;-76
2023/07/10 02:32:57;;;;;;;12.60;6.00;;;21.80;99.90;;;21.78;76.68;101134.59;5035239;28;20197;-76
2023/07/10 02:35:28;;;;;;;10.53;6.13;;;21.70;99.90;;;21.78;76.78;101121.81;5033585;28;20729;-76
2023/07/10 02:38:00;;;;;;;11.77;5.80;;;21.80;99.90;;;21.75;77.08;101117.59;5035126;28;20319;-76
2023/07/10 02:40:34;;;;;;;7.60;5.70;;;21.70;99.90;;;21.80;76.00;101110.66;5034796;28;20552;-76
2023/07/10 02:43:05;;;;;;;9.73;5.83;;;21.80;99.90;;;21.77;76.44;101103.78;5034733;28;20209;-76
2023/07/10 02:45:39;;;;;;;11.10;6.23;;;21.70;99.90;;;21.74;77.32;101105.06;5034919;28;20314;-76
2023/07/10 02:48:11;;;;;;;10.50;5.87;;;21.70;99.90;;;21.79;76.25;101114.44;5034652;28;20649;-76
2023/07/10 02:50:44;;;;;;;9.10;6.03;;;21.80;99.90;;;21.85;76.45;101113.56;5034536;28;20679;-76
2023/07/10 02:53:16;;;;;;;11.83;6.20;;;21.90;99.90;;;21.66;76.66;101113.50;5034839;28;20209;-76
2023/07/10 02:55:49;;;;;;;10.40;6.47;;;21.70;99.90;;;21.64;77.44;101123.78;5034749;28;20318;-76
2023/07/10 02:58:21;;;;;;;12.00;6.40;;;21.50;99.90;;;21.63;76.93;101111.25;5034753;28;20253;-76
2023/07/10 03:01:01;;;;;;;8.23;5.73;;;21.60;99.90;;;21.71;76.27;101115.56;5034675;28;20266;-76
2023/07/10 03:03:33;;;;;;;11.87;5.80;;;21.70;99.90;;;21.65;77.67;101121.91;5034343;28;20198;-76
2023/07/10 03:06:06;;;;;;;7.37;5.60;;;21.60;99.90;;;21.62;77.05;101120.47;5034516;28;20280;-76
2023/07/10 03:08:40;;;;;;;9.97;6.47;;;21.60;99.90;;;21.72;76.52;101125.41;5034559;28;20190;-76
2023/07/10 03:11:16;;;;;;;7.80;5.60;;;21.80;99.90;;;21.73;76.19;101117.00;5034094;28;20210;-76
2023/07/10 03:13:48;;;;;;;10.10;6.20;;;21.80;99.90;;;21.79;76.48;101119.88;5034415;28;20277;-76
2023/07/10 03:16:20;;;;;;;9.00;6.43;;;21.80;99.90;;;21.74;77.32;101124.13;5034057;28;20775;-76
2023/07/10 03:18:52;;;;;;;12.63;6.73;;;21.70;99.90;;;21.74;76.55;101117.84;5034372;28;20195;-76
2023/07/10 03:21:24;;;;;;;11.77;6.37;;;21.80;99.90;;;21.69;77.48;101125.84;5034819;28;20278;-76
2023/07/10 03:23:56;;;;;;;8.20;6.87;;;21.70;99.90;;;21.70;77.96;101127.53;5034250;28;20221;-76
2023/07/10 03:26:30;;;;;;;10.77;6.90;;;21.70;99.90;;;21.67;76.93;101131.53;5034108;28;20237;-76
2023/07/10 03:29:11;;;;;;;7.73;5.97;;;21.70;99.90;;;21.63;76.59;101133.03;5034124;28;20286;-76
2023/07/10 03:31:43;;;;;;;9.27;6.63;;;21.70;99.90;;;21.42;78.78;101130.69;5033662;28;20302;-76
2023/07/10 03:34:16;;;;;;;10.60;7.00;;;21.60;99.90;;;21.34;79.59;101133.69;5033593;28;20202;-76
2023/07/10 03:36:50;;;;;;;10.07;6.70;;;21.40;99.90;;;21.35;79.25;101132.63;5033772;28;20195;-76
2023/07/10 03:39:22;;;;;;;11.97;6.80;;;21.40;99.90;;;21.41;79.08;101128.19;5034022;28;20618;-76
2023/07/10 03:41:56;;;;;;;10.07;6.70;;;21.40;99.90;;;21.40;79.32;101116.47;5033941;28;20187;-76
2023/07/10 03:44:28;;;;;;;9.73;6.67;;;21.40;99.90;;;21.37;78.89;101122.34;5033547;28;20186;-76
2023/07/10 03:46:59;;;;;;;8.67;7.07;;;21.40;99.90;;;21.42;78.91;101124.41;5033300;28;20197;-76
2023/07/10 03:49:31;;;;;;;8.30;6.67;;;21.50;99.90;;;21.42;79.34;101125.25;5033871;28;20190;-76
2023/07/10 03:52:04;;;;;;;15.37;6.73;;;21.50;99.90;;;21.29;79.15;101125.34;5033425;28;20582;-76
2023/07/10 03:54:36;;;;;;;11.47;7.27;;;21.40;99.90;;;21.32;79.11;101124.06;5033680;28;20195;-76
2023/07/10 03:57:11;;;;;;;9.43;6.73;;;21.30;99.90;;;21.26;79.30;101125.81;5033421;28;20628;-76
2023/07/10 03:59:43;;;;;;;9.83;6.83;;;21.30;99.90;;;21.24;79.70;101122.44;5033341;28;20564;-76
2023/07/10 04:02:15;;;;;;;10.33;7.97;;;21.30;99.90;;;21.24;80.09;101119.72;5033645;28;20227;-76
2023/07/10 04:04:47;;;;;;;13.23;7.43;;;21.30;99.90;;;21.26;80.31;101125.81;5033228;28;20671;-76
2023/07/10 04:07:20;;;;;;;9.53;7.60;;;21.30;99.90;;;21.24;80.58;101122.44;5033639;28;20277;-76
2023/07/10 04:09:53;;;;;;;9.77;6.70;;;21.30;99.90;;;21.21;80.04;101112.84;5033544;28;20237;-76
2023/07/10 04:12:26;;;;;;;11.80;7.33;;;21.30;99.90;;;21.31;80.04;101116.94;5033138;28;20611;-76
2023/07/10 04:14:59;;;;;;;9.60;7.13;;;21.40;99.90;;;21.24;80.36;101109.66;5033445;28;20227;-75
2023/07/10 04:17:31;;;;;;;8.50;7.20;;;21.30;99.90;;;21.23;79.95;101109.91;5033465;28;20191;-75
2023/07/10 04:20:08;;;;;;;12.07;7.30;;;21.30;99.90;;;21.22;80.38;101106.34;5033459;28;20195;-75
2023/07/10 04:22:40;;;;;;;11.93;7.70;;;21.30;99.90;;;21.21;80.67;101099.22;5033440;28;20282;-75
2023/07/10 04:25:12;;;;;;;9.87;8.13;;;21.30;99.90;;;21.21;80.71;101095.66;5033340;28;20261;-75
2023/07/10 04:27:46;;;;;;;13.77;8.10;;;21.30;99.90;;;21.23;80.46;101093.56;5033038;28;20727;-75
2023/07/10 04:30:17;;;;;;;11.37;7.97;;;21.30;99.90;;;21.24;80.56;101101.50;5033341;28;20274;-75
2023/07/10 04:32:49;;;;;;;13.40;8.50;;;21.30;99.90;;;21.21;81.03;101106.56;5033257;28;20302;-75
2023/07/10 04:35:21;;;;;;;10.97;8.03;;;21.30;99.90;;;21.18;80.51;101112.44;5032966;28;20292;-75
2023/07/10 04:37:53;;;;;;;11.60;7.77;;;21.30;99.90;;;21.16;81.04;101111.84;5033275;28;20187;-75
2023/07/10 04:40:25;;;;;;;10.80;7.77;;;21.20;99.90;;;21.16;81.47;101120.00;5032950;28;20636;-75
2023/07/10 04:42:58;;;;;;;14.13;7.87;;;21.20;99.90;;;21.16;81.18;101120.00;5032953;28;20197;-75
2023/07/10 04:45:30;;;;;;;17.30;8.23;;;21.20;99.90;;;21.07;82.04;101129.44;5033160;28;20230;-75
2023/07/10 04:48:02;;;;;;;9.63;7.90;;;21.20;99.90;;;21.05;81.94;101135.13;5032891;28;20642;-75
2023/07/10 04:50:34;;;;;;;11.93;8.00;;;21.10;99.90;;;21.06;82.28;101125.88;5032869;28;20595;-75
2023/07/10 04:53:06;;;;;;;10.67;8.27;;;21.20;99.90;;;21.05;82.08;101128.84;5033141;28;20287;-75
2023/07/10 04:55:38;;;;;;;10.87;8.50;;;21.10;99.90;;;20.92;83.46;101126.22;5033207;28;20319;-75
2023/07/10 04:58:14;;;;;;;9.67;8.60;;;21.00;99.90;;;20.90;83.86;101125.56;5034044;28;20191;-75
2023/07/10 05:00:51;;;;;;;10.40;8.63;;;21.00;99.90;;;20.87;83.99;101121.41;5036945;28;20218;-75
2023/07/10 05:03:25;;;;;;;12.43;9.47;;;20.90;99.90;;;20.89;84.70;101129.38;5036886;28;20278;-75
2023/07/10 05:05:59;;;;;;;15.43;10.90;;;21.00;99.90;;;20.63;86.33;101124.88;5036796;28;20269;-75
2023/07/10 05:08:32;;;;;;;16.17;11.07;;;20.80;99.90;;;20.66;85.96;101121.72;5037349;28;20277;-75
2023/07/10 05:11:04;;;;;;;21.00;11.10;;;20.80;99.90;;;20.78;85.74;101111.84;5036374;28;20669;-75
2023/07/10 05:13:37;;;;;;;15.33;12.03;;;20.90;99.90;;;20.73;86.05;101123.38;5036706;28;20269;-75
2023/07/10 05:16:09;;;;;;;16.90;12.37;;;20.90;99.90;;;20.70;85.79;101121.09;5036625;28;20281;-75
2023/07/10 05:18:41;;;;;;;19.40;13.73;;;20.90;99.90;;;20.68;86.07;101115.03;5036409;28;20637;-75
2023/07/10 05:21:13;;;;;;;16.33;13.40;;;20.80;99.90;;;20.69;85.91;101119.41;5036590;28;20271;-75
2023/07/10 05:23:45;;;;;;;17.73;13.80;;;20.80;99.90;;;20.61;85.91;101122.41;5036524;28;20201;-76
2023/07/10 05:26:20;;;;;;;17.77;14.73;;;20.80;99.90;;;20.57;86.45;101123.88;5036452;28;20226;-76
2023/07/10 05:28:53;;;;;;;18.87;16.13;;;20.80;99.90;;;20.45;87.10;101122.03;5036399;28;20206;-76
2023/07/10 05:31:25;;;;;;;20.20;14.80;;;20.70;99.90;;;20.54;86.30;101126.19;5036317;28;20306;-76
2023/07/10 05:33:57;;;;;;;17.10;14.13;;;20.80;99.90;;;20.54;85.52;101137.91;5036371;28;20195;-76
2023/07/10 05:36:29;;;;;;;19.53;15.60;;;20.80;99.90;;;20.55;85.91;101139.56;5036198;28;20281;-76
2023/07/10 05:39:00;;;;;;;17.03;15.33;;;20.70;99.90;;;20.49;86.59;101156.75;5035939;28;20230;-76
2023/07/10 05:41:33;;;;;;;20.77;17.17;;;20.70;99.90;;;20.54;86.88;101158.84;5036193;28;20191;-76
2023/07/10 05:44:07;;;;;;;21.83;19.53;;;20.70;99.90;;;20.59;86.04;101159.84;5036144;28;20281;-76
2023/07/10 05:46:39;;;;;;;21.77;19.50;;;20.80;99.90;;;20.55;86.04;101166.78;5036028;28;20313;-76
2023/07/10 05:49:10;;;;;;;21.33;18.43;;;20.70;99.90;;;20.52;86.02;101163.66;5035808;28;20195;-76
2023/07/10 05:51:42;;;;;;;22.60;19.00;;;20.80;99.90;;;20.53;86.41;101165.31;5035984;28;20305;-76
2023/07/10 05:54:14;;;;;;;26.13;23.40;;;20.70;99.90;;;20.44;86.50;101178.34;5035656;28;20188;-76
2023/07/10 05:56:47;;;;;;;32.53;27.73;;;20.60;99.90;;;20.37;86.47;101184.84;5035900;28;20191;-76
2023/07/10 05:59:20;;;;;;;31.47;27.20;;;20.60;99.90;;;20.41;86.51;101196.97;5035877;28;20277;-76
2023/07/10 06:01:52;;;;;;;32.43;28.27;;;20.50;99.90;;;20.42;86.39;101196.75;5035866;28;20191;-76
2023/07/10 06:04:23;;;;;;;30.93;27.67;;;20.60;99.90;;;20.41;86.22;101203.22;5035714;28;20202;-76
2023/07/10 06:06:58;;;;;;;27.50;24.60;;;20.50;99.90;;;20.31;87.03;101202.81;5035756;28;20191;-76
2023/07/10 06:09:30;;;;;;;25.97;22.63;;;20.50;99.90;;;20.33;86.55;101194.47;5035525;28;20286;-76
2023/07/10 06:12:05;;;;;;;25.67;22.17;;;20.50;99.90;;;20.37;86.11;101196.56;5035586;28;20206;-76
2023/07/10 06:14:38;;;;;;;28.17;23.83;;;20.50;99.90;;;20.33;86.60;101206.19;5035470;28;20187;-76
2023/07/10 06:17:09;;;;;;;27.70;23.93;;;20.50;99.90;;;20.28;87.27;101199.69;5035590;28;20291;-76
2023/07/10 06:19:41;;;;;;;26.90;22.80;;;20.50;99.90;;;20.35;86.70;101209.50;5035187;28;20633;-76
2023/07/10 06:22:16;;;;;;;25.70;22.70;;;20.50;99.90;;;20.34;87.02;101213.31;5035053;28;20629;-76
2023/07/10 06:24:48;;;;;;;24.97;22.17;;;20.50;99.90;;;20.35;87.11;101214.94;5035272;28;20261;-76
2023/07/10 06:27:19;;;;;;;24.30;21.70;;;20.50;99.90;;;20.22;86.73;101215.78;5035986;28;20195;-76
2023/07/10 06:29:53;;;;;;;25.30;20.97;;;20.40;99.90;;;20.27;86.12;101223.34;5035344;28;20197;-76
2023/07/10 06:32:24;;;;;;;22.83;20.43;;;20.50;99.90;;;20.29;86.43;101229.41;5035200;28;20211;-76
2023/07/10 06:34:56;;;;;;;22.47;20.07;;;20.50;99.90;;;20.32;86.23;101231.69;5034912;28;20246;-76
2023/07/10 06:37:28;;;;;;;22.87;20.33;;;20.50;99.90;;;20.25;86.43;101241.72;5035180;28;20237;-76
2023/07/10 06:40:13;;;;;;;26.37;21.50;;;20.40;99.90;;;20.26;86.02;101243.41;5035157;28;20222;-76
2023/07/10 06:42:45;;;;;;;26.07;22.37;;;20.40;99.90;;;20.21;86.55;101245.91;5035050;28;20234;-76
2023/07/10 06:45:19;;;;;;;25.53;21.73;;;20.40;99.90;;;20.25;86.14;101241.72;5034924;28;20229;-76
2023/07/10 06:47:51;;;;;;;27.60;22.07;;;20.40;99.90;;;20.25;86.30;101242.56;5034989;28;20190;-76
2023/07/10 06:50:23;;;;;;;24.53;21.90;;;20.40;99.90;;;20.16;86.59;101252.00;5034954;28;20198;-76
2023/07/10 06:52:55;;;;;;;23.30;20.83;;;20.40;99.90;;;20.11;87.59;101250.94;5034496;28;20242;-76
2023/07/10 06:55:27;;;;;;;29.13;23.27;;;20.30;99.90;;;19.98;87.84;101250.94;5034703;28;20223;-76
2023/07/10 06:57:59;;;;;;;22.83;20.43;;;20.20;99.90;;;20.10;87.51;101258.25;5034807;28;20278;-76
2023/07/10 07:00:33;;;;;;;26.63;22.57;;;20.30;99.90;;;20.01;87.42;101250.50;5034710;28;20218;-76
2023/07/10 07:03:04;;;;;;;30.70;23.23;;;20.30;99.90;;;20.03;87.48;101251.16;5034661;28;20187;-76
2023/07/10 07:05:36;;;;;;;24.73;21.83;;;20.20;99.90;;;20.00;87.45;101257.03;5034171;28;20707;-76
2023/07/10 07:08:08;;;;;;;25.90;22.20;;;20.20;99.90;;;20.02;88.21;101263.06;5034535;28;20289;-76
2023/07/10 07:10:45;;;;;;;26.70;22.63;;;20.20;99.90;;;19.99;88.12;101250.75;5034215;28;20230;-76
2023/07/10 07:13:17;;;;;;;26.20;22.17;;;20.20;99.90;;;19.96;87.50;101256.59;5034370;28;20211;-76
2023/07/10 07:15:56;;;;;;;25.00;22.23;;;20.20;99.90;;;19.97;87.21;101257.41;5034043;28;20708;-75
2023/07/10 07:18:28;;;;;;;24.90;22.20;;;20.20;99.90;;;19.98;87.36;101259.94;5034891;28;20278;-75
2023/07/10 07:21:01;;;;;;;24.57;20.80;;;20.20;99.90;;;19.98;87.81;101251.78;5033810;28;20283;-75
2023/07/10 07:23:33;;;;;;;24.73;21.80;;;20.20;99.90;;;19.99;87.55;101252.63;5034274;28;20282;-75
2023/07/10 07:26:05;;;;;;;25.97;22.47;;;20.20;99.90;;;20.07;87.85;101252.38;5034186;28;20317;-75
2023/07/10 07:28:37;;;;;;;25.77;21.53;;;20.30;99.90;;;20.13;87.30;101243.41;5033856;28;20578;-75
2023/07/10 07:31:11;;;;;;;24.33;20.57;;;20.30;99.90;;;20.15;87.06;101242.16;5034174;28;20286;-75
2023/07/10 07:33:43;;;;;;;23.47;19.73;;;20.40;99.90;;;20.22;86.37;101239.44;5033716;28;20672;-75
2023/07/10 07:36:15;;;;;;;21.00;18.73;;;20.40;99.90;;;20.27;86.10;101245.13;5033669;28;20791;-76
2023/07/10 07:38:47;;;;;;;25.10;19.77;;;20.50;99.90;;;20.26;86.27;101246.13;5034315;28;20258;-76
2023/07/10 07:41:19;;;;;;;25.30;20.40;;;20.50;99.90;;;20.32;86.10;101253.47;5035215;28;20187;-76
2023/07/10 07:43:51;;;;;;;25.60;19.50;;;20.50;99.90;;;20.34;85.87;101251.38;5057158;28;20205;-76
2023/07/10 07:46:24;;;;;;;21.27;17.60;;;20.50;99.90;;;20.37;85.48;101256.38;5051358;28;20230;-75
2023/07/10 07:48:56;;;;;;;29.13;19.43;;;20.60;99.90;;;20.42;85.64;101261.16;5058464;28;20198;-75
2023/07/10 07:51:29;;;;;;;21.67;18.17;;;20.60;99.90;;;20.39;85.56;101259.72;5050519;28;20199;-74
2023/07/10 07:54:11;;;;;;;19.27;16.23;;;20.60;99.90;;;20.36;85.06;101262.88;5057104;28;20214;-74
2023/07/10 07:56:43;;;;;;;21.30;16.57;;;20.70;99.90;;;20.40;84.72;101260.56;5051903;28;20720;-75
2023/07/10 07:59:16;;;;;;;18.87;16.63;;;20.60;99.90;;;20.35;85.25;101258.47;5033390;28;20191;-76
2023/07/10 08:01:49;;;;;;;18.00;15.40;;;20.60;99.90;;;20.40;84.63;101271.44;5033600;28;20195;-76
2023/07/10 08:04:22;;;;;;;19.50;15.17;;;20.60;99.90;;;20.40;84.85;101272.28;5033226;28;20557;-76
2023/07/10 08:06:57;;;;;;;20.20;18.00;;;20.60;99.90;;;20.34;85.01;101280.44;5033314;28;20634;-77
2023/07/10 08:09:28;;;;;;;17.13;15.30;;;20.60;99.90;;;20.41;84.54;101279.38;5033149;28;20535;-76
2023/07/10 08:12:00;;;;;;;17.90;15.43;;;20.60;99.90;;;20.36;84.71;101281.91;5033556;28;20274;-76
2023/07/10 08:14:34;;;;;;;19.27;15.83;;;20.60;99.90;;;20.34;84.51;101273.13;5033293;28;20300;-76
2023/07/10 08:17:08;;;;;;;17.93;16.03;;;20.60;99.90;;;20.30;84.30;101271.88;5033151;28;20278;-76
2023/07/10 08:19:39;;;;;;;18.07;15.33;;;20.50;99.90;;;20.35;84.44;101285.66;5033501;28;20195;-77
2023/07/10 08:22:13;;;;;;;19.27;15.57;;;20.60;99.90;;;20.33;84.92;101293.22;5033443;28;20218;-77
2023/07/10 08:24:46;;;;;;;18.73;15.27;;;20.60;99.90;;;20.37;84.39;101296.34;5033078;28;20254;-77
2023/07/10 08:27:18;;;;;;;15.00;13.50;;;20.60;99.90;;;20.38;83.51;101282.50;5033372;28;20278;-77
2023/07/10 08:29:50;;;;;;;22.63;20.27;;;20.60;99.90;;;20.43;83.17;101287.34;5033436;28;20188;-76
2023/07/10 08:32:23;;;;;;;18.27;16.33;;;20.70;99.90;;;20.44;83.68;101289.84;5033538;28;20617;-76
2023/07/10 08:34:57;;;;;;;19.70;15.57;;;20.70;99.90;;;20.48;83.49;101307.41;5037079;28;20246;-77
2023/07/10 08:37:30;;;;;;;17.47;14.87;;;20.70;99.90;;;20.43;83.69;101303.66;5037488;28;20218;-76
2023/07/10 08:40:02;;;;;;;17.10;15.30;;;20.60;99.90;;;20.40;83.17;101307.63;5037494;28;20205;-76
2023/07/10 08:42:35;;;;;;;17.03;14.57;;;20.60;99.90;;;20.39;83.39;101302.41;5037355;28;20197;-76
2023/07/10 08:45:13;;;;;;;15.43;13.83;;;20.60;99.90;;;20.41;83.57;101306.56;5037095;28;20576;-76
2023/07/10 08:47:58;;;;;;;33.07;27.20;;;20.60;99.90;;;20.48;83.92;101301.97;5037301;28;20269;-76
2023/07/10 08:50:34;;;;;;;19.80;16.07;;;20.70;99.90;;;20.51;83.33;101301.56;5037343;28;20210;-76
2023/07/10 08:53:16;;;;;;;13.90;12.23;;;20.80;99.90;;;20.54;82.43;101301.13;5037144;28;20254;-76
2023/07/10 08:56:04;;;;;;;14.43;12.93;;;20.80;99.90;;;20.48;82.71;101303.88;5037121;28;20227;-76
2023/07/10 08:58:41;;;;;;;16.17;14.47;;;20.80;99.90;;;20.51;83.11;101312.44;5036922;28;20535;-76
2023/07/10 09:01:27;;;;;;;15.53;13.93;;;20.80;99.90;;;20.53;83.31;101299.44;5036794;28;20282;-76
2023/07/10 09:04:04;;;;;;;15.10;13.50;;;20.80;99.90;;;20.57;82.75;101297.16;5036767;28;20637;-76
2023/07/10 09:06:44;;;;;;;17.90;13.53;;;20.80;99.90;;;20.54;82.24;101306.56;5036867;28;20265;-76
2023/07/10 09:09:31;;;;;;;15.63;13.50;;;20.80;99.90;;;20.57;82.55;101305.31;5036921;28;20241;-76
2023/07/10 09:12:10;;;;;;;15.50;13.63;;;20.80;99.90;;;20.61;82.65;101312.00;5036624;28;20680;-76
2023/07/10 09:14:51;;;;;;;42.17;36.93;;;20.90;99.90;;;20.63;81.71;101307.19;5036756;28;20314;-77
2023/07/10 09:17:43;;;;;;;30.40;26.87;;;20.90;99.90;;;20.64;81.84;101317.03;5036944;28;20215;-76
2023/07/10 09:20:18;;;;;;;12.63;10.93;;;20.90;99.90;;;20.62;81.57;101314.50;5036459;28;20211;-77
2023/07/10 09:22:56;;;;;;;13.50;10.30;;;20.90;99.90;;;20.66;81.08;101315.75;5036686;28;20190;-77
2023/07/10 09:25:29;;;;;;;11.37;10.27;;;20.90;99.90;;;20.64;80.96;101317.84;5036633;28;20268;-77
2023/07/10 09:28:01;;;;;;;15.23;10.40;;;20.90;99.90;;;20.66;81.23;101320.34;5036288;28;20240;-77
2023/07/10 09:30:49;;;;;;;14.23;10.50;;;20.90;99.90;;;20.64;81.00;101322.47;5036622;28;20273;-77
2023/07/10 09:33:22;;;;;;;19.17;15.50;;;20.90;99.90;;;20.62;81.87;101330.81;5036464;28;20257;-76
2023/07/10 09:35:57;;;;;;;12.33;9.77;;;20.80;99.90;;;20.62;81.88;101325.38;5036032;28;20239;-77
2023/07/10 09:38:31;;;;;;;14.97;9.90;;;20.80;99.90;;;20.66;81.95;101332.06;5036434;28;20225;-77
2023/07/10 09:41:13;;;;;;;11.37;8.93;;;20.90;99.90;;;20.72;81.01;101331.22;5036454;28;20220;-77
2023/07/10 09:43:54;;;;;;;15.77;10.97;;;21.00;99.90;;;20.71;80.98;101326.84;5035478;28;20227;-77
2023/07/10 09:46:30;;;;;;;21.07;14.93;;;21.00;99.90;;;20.79;80.96;101330.41;5035972;28;20226;-77
2023/07/10 09:49:12;;;;;;;14.27;10.43;;;21.00;99.90;;;20.85;81.50;101334.97;5036192;28;20274;-77
2023/07/10 09:51:55;;;;;;;16.43;10.33;;;21.10;99.90;;;20.83;80.88;101348.78;5035808;28;20707;-76
2023/07/10 09:54:35;;;;;;;14.23;11.20;;;21.10;99.90;;;20.73;80.38;101338.34;5035947;28;20302;-76
2023/07/10 09:57:16;;;;;;;14.53;11.17;;;21.00;99.90;;;20.77;80.41;101343.34;5035660;28;20195;-77
2023/07/10 09:59:55;;;;;;;17.67;11.50;;;21.00;99.90;;;20.88;80.37;101340.84;5035907;28;20194;-71
2023/07/10 10:02:40;;;;;;;14.80;10.60;;;21.10;99.90;;;21.00;80.65;101339.09;5035550;28;20681;-71
2023/07/10 10:05:20;;;;;;;13.23;10.90;;;21.30;99.90;;;21.17;79.97;101339.50;5035339;28;20571;-72
2023/07/10 10:08:04;;;;;;;11.93;10.10;;;21.50;99.90;;;21.27;80.00;101334.44;5035848;28;20191;-72
2023/07/10 10:10:37;;;;;;;11.67;8.03;;;21.60;99.90;;;21.37;78.88;101339.44;5035592;28;20202;-72
2023/07/10 10:13:20;;;;;;;10.03;7.93;;;21.70;99.90;;;21.44;77.30;101330.16;5035640;28;20183;-72
2023/07/10 10:16:03;;;;;;;12.43;7.77;;;21.70;99.90;;;21.61;76.30;101336.78;5035317;28;20218;-72
2023/07/10 10:18:45;;;;;;;12.30;7.57;;;21.90;99.90;;;21.72;75.53;101332.53;5035318;28;20197;-72
2023/07/10 10:21:21;;;;;;;8.07;5.80;;;22.00;99.90;;;21.87;75.15;101329.50;5035560;28;20195;-72
2023/07/10 10:24:04;;;;;;;9.37;5.40;;;22.20;99.90;;;22.03;73.82;101335.28;5035511;28;20278;-72
2023/07/10 10:26:57;;;;;;;9.37;6.47;;;22.40;99.90;;;22.15;73.26;101349.91;5035391;28;20227;-73
2023/07/10 10:30:06;;;;;;;10.07;5.27;;;22.50;99.90;;;22.25;71.32;101349.41;5035506;28;20195;-72
2023/07/10 10:32:51;;;;;;;12.23;10.67;;;22.60;99.90;;;22.36;71.87;101347.84;5035371;28;20203;-73
2023/07/10 10:35:33;;;;;;;10.30;8.47;;;22.70;99.90;;;22.51;71.50;101354.63;5034929;28;20230;-73